sensor_id;sensor_type;location;lat;lon;timestamp;pressure;altitude;pressure_sealevel;temperature;humidity
3968;BME280;9221;42.646;23.380;2022-07-23T00:00:51;94869.66;;;22.98;50.80
3968;BME280;9221;42.646;23.380;2022-07-23T00:03:16;94797.88;;;22.74;50.95
3968;BME280;9221;42.646;23.380;2022-07-23T00:05:42;94804.97;;;22.68;50.92
3968;BME280;9221;42.646;23.380;2022-07-23T00:08:08;94879.75;;;22.78;52.25
3968;BME280;9221;42.646;23.380;2022-07-23T00:10:34;94857.09;;;22.42;53.10
3968;BME280;9221;42.646;23.380;2022-07-23T00:13:00;94817.63;;;22.04;53.99
3968;BME280;9221;42.646;23.380;2022-07-23T00:15:26;94884.72;;;22.10;55.30
3968;BME280;9221;42.646;23.380;2022-07-23T00:17:51;94808.13;;;21.62;56.47
3968;BME280;9221;42.646;23.380;2022-07-23T00:20:17;94751.78;;;21.04;57.13
3968;BME280;9221;42.646;23.380;2022-07-23T00:22:51;94861.81;;;21.49;58.28
3968;BME280;9221;42.646;23.380;2022-07-23T00:25:17;94811.81;;;21.09;58.59
3968;BME280;9221;42.646;23.380;2022-07-23T00:27:42;94814.03;;;21.19;58.62
3968;BME280;9221;42.646;23.380;2022-07-23T00:30:09;94815.91;;;21.19;58.59
3968;BME280;9221;42.646;23.380;2022-07-23T00:32:51;94820.84;;;21.15;58.86
3968;BME280;9221;42.646;23.380;2022-07-23T00:35:20;94861.88;;;21.36;59.27
3968;BME280;9221;42.646;23.380;2022-07-23T00:37:46;94902.72;;;21.38;60.04
3968;BME280;9221;42.646;23.380;2022-07-23T00:40:12;94861.50;;;21.12;59.79
3968;BME280;9221;42.646;23.380;2022-07-23T00:42:38;94838.53;;;21.36;60.14
3968;BME280;9221;42.646;23.380;2022-07-23T00:45:03;94866.34;;;21.62;60.17
3968;BME280;9221;42.646;23.380;2022-07-23T00:47:29;94868.44;;;21.60;60.57
3968;BME280;9221;42.646;23.380;2022-07-23T00:49:55;94812.72;;;21.42;60.60
3968;BME280;9221;42.646;23.380;2022-07-23T00:52:20;94860.91;;;21.82;60.48
3968;BME280;9221;42.646;23.380;2022-07-23T00:54:46;94854.09;;;21.79;60.32
3968;BME280;9221;42.646;23.380;2022-07-23T00:57:11;94861.09;;;21.87;60.13
3968;BME280;9221;42.646;23.380;2022-07-23T00:59:40;94806.31;;;21.43;60.51
3968;BME280;9221;42.646;23.380;2022-07-23T01:02:06;94865.09;;;21.64;60.03
3968;BME280;9221;42.646;23.380;2022-07-23T01:04:31;94853.13;;;21.60;60.22
3968;BME280;9221;42.646;23.380;2022-07-23T01:06:57;94863.28;;;21.58;60.32
3968;BME280;9221;42.646;23.380;2022-07-23T01:09:23;94867.59;;;21.59;60.09
3968;BME280;9221;42.646;23.380;2022-07-23T01:11:50;94851.31;;;21.54;60.05
3968;BME280;9221;42.646;23.380;2022-07-23T01:14:18;94860.16;;;21.61;59.86
3968;BME280;9221;42.646;23.380;2022-07-23T01:16:45;94888.22;;;21.72;59.38
3968;BME280;9221;42.646;23.380;2022-07-23T01:19:12;94882.47;;;21.55;59.77
3968;BME280;9221;42.646;23.380;2022-07-23T01:21:43;94855.44;;;21.50;60.10
3968;BME280;9221;42.646;23.380;2022-07-23T01:24:09;94786.47;;;20.92;60.62
3968;BME280;9221;42.646;23.380;2022-07-23T01:26:35;94865.44;;;21.16;61.38
3968;BME280;9221;42.646;23.380;2022-07-23T01:29:01;94857.97;;;21.18;61.69
3968;BME280;9221;42.646;23.380;2022-07-23T01:31:26;94845.44;;;21.05;61.57
3968;BME280;9221;42.646;23.380;2022-07-23T01:33:52;94823.19;;;20.91;61.37
3968;BME280;9221;42.646;23.380;2022-07-23T01:36:18;94889.16;;;20.92;61.37
3968;BME280;9221;42.646;23.380;2022-07-23T01:38:43;94832.47;;;20.95;61.38
3968;BME280;9221;42.646;23.380;2022-07-23T01:41:09;94855.72;;;21.08;60.96
3968;BME280;9221;42.646;23.380;2022-07-23T01:43:35;94792.69;;;20.79;60.66
3968;BME280;9221;42.646;23.380;2022-07-23T01:46:00;94823.41;;;20.83;60.41
3968;BME280;9221;42.646;23.380;2022-07-23T01:48:26;94791.00;;;20.91;59.94
3968;BME280;9221;42.646;23.380;2022-07-23T01:50:51;94842.88;;;21.30;59.48
3968;BME280;9221;42.646;23.380;2022-07-23T01:53:17;94810.16;;;21.02;59.42
3968;BME280;9221;42.646;23.380;2022-07-23T01:55:42;94835.09;;;21.09;59.66
3968;BME280;9221;42.646;23.380;2022-07-23T01:58:08;94795.16;;;20.87;59.11
3968;BME280;9221;42.646;23.380;2022-07-23T02:00:34;94812.41;;;21.05;58.60
3968;BME280;9221;42.646;23.380;2022-07-23T02:03:00;94849.97;;;21.05;59.27
3968;BME280;9221;42.646;23.380;2022-07-23T02:05:26;94805.03;;;20.93;58.88
3968;BME280;9221;42.646;23.380;2022-07-23T02:07:54;94911.19;;;21.21;58.87
3968;BME280;9221;42.646;23.380;2022-07-23T02:10:20;94848.28;;;21.17;59.13
3968;BME280;9221;42.646;23.380;2022-07-23T02:12:45;94791.41;;;20.82;59.38
3968;BME280;9221;42.646;23.380;2022-07-23T02:15:10;94857.78;;;21.13;59.07
3968;BME280;9221;42.646;23.380;2022-07-23T02:17:36;94878.00;;;21.09;59.51
3968;BME280;9221;42.646;23.380;2022-07-23T02:20:02;94805.47;;;20.77;59.77
3968;BME280;9221;42.646;23.380;2022-07-23T02:22:28;94853.69;;;21.10;59.35
3968;BME280;9221;42.646;23.380;2022-07-23T02:24:53;94799.69;;;20.80;59.76
3968;BME280;9221;42.646;23.380;2022-07-23T02:27:18;94799.28;;;20.83;59.06
3968;BME280;9221;42.646;23.380;2022-07-23T02:29:44;94860.25;;;21.21;58.85
3968;BME280;9221;42.646;23.380;2022-07-23T02:32:09;94866.81;;;21.25;58.66
3968;BME280;9221;42.646;23.380;2022-07-23T02:34:35;94851.13;;;21.36;58.53
3968;BME280;9221;42.646;23.380;2022-07-23T02:37:00;94850.91;;;21.44;58.34
3968;BME280;9221;42.646;23.380;2022-07-23T02:39:25;94853.16;;;21.40;58.63
3968;BME280;9221;42.646;23.380;2022-07-23T02:41:52;94788.56;;;20.83;58.94
3968;BME280;9221;42.646;23.380;2022-07-23T02:44:17;94826.47;;;20.93;59.23
3968;BME280;9221;42.646;23.380;2022-07-23T02:46:43;94792.47;;;20.54;60.16
3968;BME280;9221;42.646;23.380;2022-07-23T02:49:08;94753.56;;;20.24;60.21
3968;BME280;9221;42.646;23.380;2022-07-23T02:51:33;94864.00;;;20.80;61.21
3968;BME280;9221;42.646;23.380;2022-07-23T02:53:59;94886.69;;;20.64;62.17
3968;BME280;9221;42.646;23.380;2022-07-23T02:56:24;94869.97;;;20.55;62.99
3968;BME280;9221;42.646;23.380;2022-07-23T02:58:50;94815.72;;;20.06;63.72
3968;BME280;9221;42.646;23.380;2022-07-23T03:01:15;94872.63;;;20.28;64.17
3968;BME280;9221;42.646;23.380;2022-07-23T03:03:40;94828.47;;;19.91;64.96
3968;BME280;9221;42.646;23.380;2022-07-23T03:06:06;94868.38;;;19.86;65.40
3968;BME280;9221;42.646;23.380;2022-07-23T03:08:31;94857.63;;;19.79;65.98
3968;BME280;9221;42.646;23.380;2022-07-23T03:10:57;94728.16;;;19.05;66.52
3968;BME280;9221;42.646;23.380;2022-07-23T03:13:22;94882.63;;;19.86;67.14
3968;BME280;9221;42.646;23.380;2022-07-23T03:15:48;94826.03;;;19.54;67.20
3968;BME280;9221;42.646;23.380;2022-07-23T03:18:13;94878.31;;;19.92;67.40
3968;BME280;9221;42.646;23.380;2022-07-23T03:20:38;94812.25;;;19.44;67.68
3968;BME280;9221;42.646;23.380;2022-07-23T03:23:04;94851.97;;;19.47;67.98
3968;BME280;9221;42.646;23.380;2022-07-23T03:25:29;94831.13;;;19.36;68.14
3968;BME280;9221;42.646;23.380;2022-07-23T03:27:55;94848.66;;;19.52;68.10
3968;BME280;9221;42.646;23.380;2022-07-23T03:30:20;94949.09;;;19.83;67.54
3968;BME280;9221;42.646;23.380;2022-07-23T03:32:45;94892.28;;;19.87;67.71
3968;BME280;9221;42.646;23.380;2022-07-23T03:35:11;94899.69;;;19.85;67.93
3968;BME280;9221;42.646;23.380;2022-07-23T03:37:36;94895.16;;;19.86;68.05
3968;BME280;9221;42.646;23.380;2022-07-23T03:40:02;94895.50;;;19.76;68.17
3968;BME280;9221;42.646;23.380;2022-07-23T03:42:28;94958.03;;;19.68;68.58
3968;BME280;9221;42.646;23.380;2022-07-23T03:44:53;94943.78;;;19.61;68.82
3968;BME280;9221;42.646;23.380;2022-07-23T03:47:18;94902.03;;;19.67;68.90
3968;BME280;9221;42.646;23.380;2022-07-23T03:49:47;94789.81;;;18.97;68.89
3968;BME280;9221;42.646;23.380;2022-07-23T03:52:13;94895.44;;;19.62;68.92
3968;BME280;9221;42.646;23.380;2022-07-23T03:54:39;94935.91;;;19.81;68.11
3968;BME280;9221;42.646;23.380;2022-07-23T03:57:04;94896.38;;;19.83;67.69
3968;BME280;9221;42.646;23.380;2022-07-23T03:59:30;94834.47;;;19.51;67.79
3968;BME280;9221;42.646;23.380;2022-07-23T04:01:55;94907.09;;;19.90;67.97
3968;BME280;9221;42.646;23.380;2022-07-23T04:04:20;94902.59;;;19.90;68.13
3968;BME280;9221;42.646;23.380;2022-07-23T04:06:46;94936.16;;;19.86;68.18
3968;BME280;9221;42.646;23.380;2022-07-23T04:09:11;94910.41;;;19.85;68.66
3968;BME280;9221;42.646;23.380;2022-07-23T04:11:37;94913.31;;;19.90;68.49
3968;BME280;9221;42.646;23.380;2022-07-23T04:14:03;94896.00;;;20.00;67.96
3968;BME280;9221;42.646;23.380;2022-07-23T04:16:28;94900.56;;;20.06;67.70
3968;BME280;9221;42.646;23.380;2022-07-23T04:18:56;94881.19;;;20.04;67.17
3968;BME280;9221;42.646;23.380;2022-07-23T04:21:22;94847.41;;;19.89;66.99
3968;BME280;9221;42.646;23.380;2022-07-23T04:23:48;94900.44;;;20.34;66.64
3968;BME280;9221;42.646;23.380;2022-07-23T04:26:13;94931.19;;;20.52;66.00
3968;BME280;9221;42.646;23.380;2022-07-23T04:28:39;94851.00;;;20.30;65.50
3968;BME280;9221;42.646;23.380;2022-07-23T04:31:04;94952.47;;;20.80;65.22
3968;BME280;9221;42.646;23.380;2022-07-23T04:33:29;94933.72;;;21.00;64.19
3968;BME280;9221;42.646;23.380;2022-07-23T04:35:55;94858.63;;;20.67;64.31
3968;BME280;9221;42.646;23.380;2022-07-23T04:38:20;94868.97;;;20.70;64.06
3968;BME280;9221;42.646;23.380;2022-07-23T04:40:46;94920.53;;;20.99;64.80
3968;BME280;9221;42.646;23.380;2022-07-23T04:43:11;94909.38;;;20.95;65.27
3968;BME280;9221;42.646;23.380;2022-07-23T04:45:36;94903.78;;;21.10;63.98
3968;BME280;9221;42.646;23.380;2022-07-23T04:48:02;94914.72;;;21.28;63.82
3968;BME280;9221;42.646;23.380;2022-07-23T04:50:27;94928.28;;;21.60;62.79
3968;BME280;9221;42.646;23.380;2022-07-23T04:52:53;94926.47;;;21.54;62.66
3968;BME280;9221;42.646;23.380;2022-07-23T04:55:18;94921.28;;;21.46;63.03
3968;BME280;9221;42.646;23.380;2022-07-23T04:57:44;94949.16;;;21.45;62.93
3968;BME280;9221;42.646;23.380;2022-07-23T05:00:09;94948.53;;;21.43;62.82
3968;BME280;9221;42.646;23.380;2022-07-23T05:02:35;94822.75;;;20.94;63.10
3968;BME280;9221;42.646;23.380;2022-07-23T05:05:00;94883.75;;;21.33;63.47
3968;BME280;9221;42.646;23.380;2022-07-23T05:07:26;94870.50;;;21.44;62.68
3968;BME280;9221;42.646;23.380;2022-07-23T05:09:51;94873.00;;;21.46;62.34
3968;BME280;9221;42.646;23.380;2022-07-23T05:12:17;94868.19;;;21.68;61.44
3968;BME280;9221;42.646;23.380;2022-07-23T05:14:42;94872.47;;;21.83;61.40
3968;BME280;9221;42.646;23.380;2022-07-23T05:17:08;94915.50;;;22.53;60.91
3968;BME280;9221;42.646;23.380;2022-07-23T05:19:34;94884.78;;;22.68;59.53
3968;BME280;9221;42.646;23.380;2022-07-23T05:21:59;94924.13;;;23.19;57.44
3968;BME280;9221;42.646;23.380;2022-07-23T05:24:25;94801.72;;;22.59;56.27
3968;BME280;9221;42.646;23.380;2022-07-23T05:26:50;94820.78;;;22.83;56.17
3968;BME280;9221;42.646;23.380;2022-07-23T05:29:16;94962.50;;;23.77;55.64
3968;BME280;9221;42.646;23.380;2022-07-23T05:31:41;94944.56;;;23.89;55.35
3968;BME280;9221;42.646;23.380;2022-07-23T05:34:06;94954.06;;;23.92;55.14
3968;BME280;9221;42.646;23.380;2022-07-23T05:36:32;94895.03;;;23.72;53.77
3968;BME280;9221;42.646;23.380;2022-07-23T05:38:58;94957.59;;;24.11;53.31
3968;BME280;9221;42.646;23.380;2022-07-23T05:41:23;94929.59;;;24.12;52.89
3968;BME280;9221;42.646;23.380;2022-07-23T05:44:08;94937.53;;;24.25;53.17
3968;BME280;9221;42.646;23.380;2022-07-23T05:46:33;94922.69;;;24.16;53.55
3968;BME280;9221;42.646;23.380;2022-07-23T05:48:59;94931.56;;;24.35;53.15
3968;BME280;9221;42.646;23.380;2022-07-23T05:51:25;94972.50;;;24.44;52.67
3968;BME280;9221;42.646;23.380;2022-07-23T05:53:51;94881.06;;;24.30;52.17
3968;BME280;9221;42.646;23.380;2022-07-23T05:56:17;94892.56;;;24.38;52.17
3968;BME280;9221;42.646;23.380;2022-07-23T05:58:43;94933.41;;;24.83;51.70
3968;BME280;9221;42.646;23.380;2022-07-23T06:01:08;94938.13;;;24.88;51.83
3968;BME280;9221;42.646;23.380;2022-07-23T06:03:34;94936.94;;;24.96;52.38
3968;BME280;9221;42.646;23.380;2022-07-23T06:05:59;94879.09;;;24.80;51.91
3968;BME280;9221;42.646;23.380;2022-07-23T06:08:25;94893.91;;;24.89;51.06
3968;BME280;9221;42.646;23.380;2022-07-23T06:10:50;94868.53;;;24.90;51.56
3968;BME280;9221;42.646;23.380;2022-07-23T06:13:17;94923.06;;;25.34;50.25
3968;BME280;9221;42.646;23.380;2022-07-23T06:15:43;94909.84;;;25.03;49.76
3968;BME280;9221;42.646;23.380;2022-07-23T06:18:09;94912.44;;;24.97;51.89
3968;BME280;9221;42.646;23.380;2022-07-23T06:20:34;94949.94;;;24.87;52.24
3968;BME280;9221;42.646;23.380;2022-07-23T06:23:00;94919.59;;;25.04;53.22
3968;BME280;9221;42.646;23.380;2022-07-23T06:25:25;94925.63;;;25.29;53.17
3968;BME280;9221;42.646;23.380;2022-07-23T06:27:51;94920.44;;;25.16;52.71
3968;BME280;9221;42.646;23.380;2022-07-23T06:30:16;94909.63;;;25.16;52.48
3968;BME280;9221;42.646;23.380;2022-07-23T06:32:42;94909.34;;;25.48;52.93
3968;BME280;9221;42.646;23.380;2022-07-23T06:35:08;94921.38;;;25.81;52.65
3968;BME280;9221;42.646;23.380;2022-07-23T06:37:33;94915.69;;;25.94;51.73
3968;BME280;9221;42.646;23.380;2022-07-23T06:39:59;94924.38;;;26.20;51.22
3968;BME280;9221;42.646;23.380;2022-07-23T06:42:24;94873.31;;;26.07;50.92
3968;BME280;9221;42.646;23.380;2022-07-23T06:44:49;94864.22;;;26.13;50.49
3968;BME280;9221;42.646;23.380;2022-07-23T06:47:15;94894.19;;;26.11;47.84
3968;BME280;9221;42.646;23.380;2022-07-23T06:49:40;94873.19;;;25.90;48.05
3968;BME280;9221;42.646;23.380;2022-07-23T06:52:07;94942.22;;;26.21;47.51
3968;BME280;9221;42.646;23.380;2022-07-23T06:54:32;94933.03;;;26.63;47.40
3968;BME280;9221;42.646;23.380;2022-07-23T06:56:58;94918.00;;;26.84;47.32
3968;BME280;9221;42.646;23.380;2022-07-23T06:59:23;94940.00;;;26.88;47.05
3968;BME280;9221;42.646;23.380;2022-07-23T07:01:48;94918.53;;;27.15;45.27
3968;BME280;9221;42.646;23.380;2022-07-23T07:04:14;94869.13;;;26.74;44.97
3968;BME280;9221;42.646;23.380;2022-07-23T07:06:39;94906.69;;;26.87;45.42
3968;BME280;9221;42.646;23.380;2022-07-23T07:09:05;94915.06;;;27.02;45.69
3968;BME280;9221;42.646;23.380;2022-07-23T07:11:30;94867.66;;;27.00;45.58
3968;BME280;9221;42.646;23.380;2022-07-23T07:13:56;94815.50;;;26.88;45.31
3968;BME280;9221;42.646;23.380;2022-07-23T07:16:21;94928.84;;;27.52;44.61
3968;BME280;9221;42.646;23.380;2022-07-23T07:18:46;94915.44;;;27.62;44.51
3968;BME280;9221;42.646;23.380;2022-07-23T07:21:12;94811.81;;;27.16;44.19
3968;BME280;9221;42.646;23.380;2022-07-23T07:23:38;94906.00;;;27.87;43.86
3968;BME280;9221;42.646;23.380;2022-07-23T07:26:03;94860.34;;;27.74;43.67
3968;BME280;9221;42.646;23.380;2022-07-23T07:28:30;94859.19;;;27.69;42.77
3968;BME280;9221;42.646;23.380;2022-07-23T07:30:55;94898.38;;;28.01;43.46
3968;BME280;9221;42.646;23.380;2022-07-23T07:33:20;94892.97;;;27.84;42.57
3968;BME280;9221;42.646;23.380;2022-07-23T07:35:47;94854.41;;;27.77;43.04
3968;BME280;9221;42.646;23.380;2022-07-23T07:38:12;94884.19;;;28.16;43.42
3968;BME280;9221;42.646;23.380;2022-07-23T07:40:37;94870.78;;;28.31;42.37
3968;BME280;9221;42.646;23.380;2022-07-23T07:43:03;94879.69;;;28.54;42.23
3968;BME280;9221;42.646;23.380;2022-07-23T07:45:29;94864.84;;;28.34;41.34
3968;BME280;9221;42.646;23.380;2022-07-23T07:47:54;94875.00;;;28.72;40.25
3968;BME280;9221;42.646;23.380;2022-07-23T07:50:21;94836.19;;;28.44;39.96
3968;BME280;9221;42.646;23.380;2022-07-23T07:52:46;94883.13;;;28.72;39.91
3968;BME280;9221;42.646;23.380;2022-07-23T07:55:12;94838.16;;;28.53;40.49
3968;BME280;9221;42.646;23.380;2022-07-23T07:57:38;94904.00;;;28.66;39.55
3968;BME280;9221;42.646;23.380;2022-07-23T08:00:06;94728.72;;;28.10;39.16
3968;BME280;9221;42.646;23.380;2022-07-23T08:02:52;94881.06;;;29.16;39.33
3968;BME280;9221;42.646;23.380;2022-07-23T08:05:20;94878.50;;;29.32;39.58
3968;BME280;9221;42.646;23.380;2022-07-23T08:07:46;94883.41;;;29.35;39.15
3968;BME280;9221;42.646;23.380;2022-07-23T08:10:11;94883.25;;;29.52;39.86
3968;BME280;9221;42.646;23.380;2022-07-23T08:12:45;94848.97;;;29.46;38.31
3968;BME280;9221;42.646;23.380;2022-07-23T08:15:13;94806.25;;;29.31;38.22
3968;BME280;9221;42.646;23.380;2022-07-23T08:17:39;94874.25;;;29.94;37.58
3968;BME280;9221;42.646;23.380;2022-07-23T08:20:06;94874.31;;;30.15;38.18
3968;BME280;9221;42.646;23.380;2022-07-23T08:22:50;94847.69;;;30.27;38.28
3968;BME280;9221;42.646;23.380;2022-07-23T08:25:19;94864.44;;;30.77;37.57
3968;BME280;9221;42.646;23.380;2022-07-23T08:27:45;94833.94;;;31.06;37.01
3968;BME280;9221;42.646;23.380;2022-07-23T08:30:11;94870.09;;;31.68;36.57
3968;BME280;9221;42.646;23.380;2022-07-23T08:32:59;94879.78;;;32.11;35.23
3968;BME280;9221;42.646;23.380;2022-07-23T08:35:38;94697.69;;;31.16;34.86
3968;BME280;9221;42.646;23.380;2022-07-23T08:38:05;94887.28;;;32.50;34.53
3968;BME280;9221;42.646;23.380;2022-07-23T08:40:33;94780.94;;;32.29;33.97
3968;BME280;9221;42.646;23.380;2022-07-23T08:42:59;94830.25;;;32.83;32.67
3968;BME280;9221;42.646;23.380;2022-07-23T08:45:27;94873.97;;;33.17;32.79
3968;BME280;9221;42.646;23.380;2022-07-23T08:47:54;94828.38;;;33.13;32.22
3968;BME280;9221;42.646;23.380;2022-07-23T08:50:21;94842.31;;;33.46;31.87
3968;BME280;9221;42.646;23.380;2022-07-23T08:52:52;94887.00;;;33.89;31.90
3968;BME280;9221;42.646;23.380;2022-07-23T08:55:18;94824.47;;;33.78;31.30
3968;BME280;9221;42.646;23.380;2022-07-23T08:57:47;94828.03;;;34.02;31.45
3968;BME280;9221;42.646;23.380;2022-07-23T09:00:13;94861.69;;;34.46;30.82
3968;BME280;9221;42.646;23.380;2022-07-23T09:02:43;94867.25;;;34.41;30.23
3968;BME280;9221;42.646;23.380;2022-07-23T09:05:09;94855.31;;;34.51;29.83
3968;BME280;9221;42.646;23.380;2022-07-23T09:07:37;94818.22;;;34.78;30.17
3968;BME280;9221;42.646;23.380;2022-07-23T09:10:08;94825.69;;;34.91;29.67
3968;BME280;9221;42.646;23.380;2022-07-23T09:12:34;94812.88;;;35.19;29.50
3968;BME280;9221;42.646;23.380;2022-07-23T09:15:08;94854.53;;;35.68;29.28
3968;BME280;9221;42.646;23.380;2022-07-23T09:17:41;94807.19;;;35.77;28.40
3968;BME280;9221;42.646;23.380;2022-07-23T09:20:15;94827.13;;;35.96;28.13
3968;BME280;9221;42.646;23.380;2022-07-23T09:22:45;94846.19;;;36.29;28.03
3968;BME280;9221;42.646;23.380;2022-07-23T09:25:15;94866.34;;;36.38;28.16
3968;BME280;9221;42.646;23.380;2022-07-23T09:27:54;94853.72;;;36.37;27.59
3968;BME280;9221;42.646;23.380;2022-07-23T09:30:24;94804.13;;;36.20;27.38
3968;BME280;9221;42.646;23.380;2022-07-23T09:33:05;94853.59;;;36.93;26.62
3968;BME280;9221;42.646;23.380;2022-07-23T09:35:44;94843.53;;;37.11;26.96
3968;BME280;9221;42.646;23.380;2022-07-23T09:38:10;94839.72;;;37.43;26.23
3968;BME280;9221;42.646;23.380;2022-07-23T09:40:35;94842.78;;;37.42;25.16
3968;BME280;9221;42.646;23.380;2022-07-23T09:43:01;94886.53;;;37.52;25.51
3968;BME280;9221;42.646;23.380;2022-07-23T09:45:26;94825.66;;;37.76;24.98
3968;BME280;9221;42.646;23.380;2022-07-23T09:48:10;94832.00;;;37.86;24.99
3968;BME280;9221;42.646;23.380;2022-07-23T09:50:36;94829.38;;;38.21;24.50
3968;BME280;9221;42.646;23.380;2022-07-23T09:53:02;94789.03;;;38.25;23.69
3968;BME280;9221;42.646;23.380;2022-07-23T09:55:32;94836.88;;;38.47;23.45
3968;BME280;9221;42.646;23.380;2022-07-23T09:58:05;94824.25;;;38.46;23.39
3968;BME280;9221;42.646;23.380;2022-07-23T10:00:40;94822.59;;;38.45;23.21
3968;BME280;9221;42.646;23.380;2022-07-23T10:03:06;94824.59;;;38.70;22.92
3968;BME280;9221;42.646;23.380;2022-07-23T10:05:32;94776.88;;;38.61;22.34
3968;BME280;9221;42.646;23.380;2022-07-23T10:08:01;94804.13;;;39.24;21.98
3968;BME280;9221;42.646;23.380;2022-07-23T10:10:27;94816.41;;;39.35;21.74
3968;BME280;9221;42.646;23.380;2022-07-23T10:12:55;94801.19;;;39.29;21.49
3968;BME280;9221;42.646;23.380;2022-07-23T10:15:50;94790.09;;;39.47;21.11
3968;BME280;9221;42.646;23.380;2022-07-23T10:18:16;94747.53;;;39.48;21.22
3968;BME280;9221;42.646;23.380;2022-07-23T10:20:42;94823.03;;;39.99;20.67
3968;BME280;9221;42.646;23.380;2022-07-23T10:36:37;94812.19;;;40.24;19.01
3968;BME280;9221;42.646;23.380;2022-07-23T10:39:10;94749.91;;;40.05;19.14
3968;BME280;9221;42.646;23.380;2022-07-23T10:41:41;94797.50;;;40.32;18.67
3968;BME280;9221;42.646;23.380;2022-07-23T10:44:12;94747.06;;;40.35;19.17
3968;BME280;9221;42.646;23.380;2022-07-23T10:47:00;94786.22;;;40.67;18.73
3968;BME280;9221;42.646;23.380;2022-07-23T10:49:45;94783.03;;;40.99;18.15
3968;BME280;9221;42.646;23.380;2022-07-23T10:57:09;94719.41;;;40.77;16.90
3968;BME280;9221;42.646;23.380;2022-07-23T11:02:44;94732.22;;;40.82;15.84
3968;BME280;9221;42.646;23.380;2022-07-23T11:05:13;94772.97;;;40.94;16.88
3968;BME280;9221;42.646;23.380;2022-07-23T11:10:40;94713.31;;;41.30;14.87
3968;BME280;9221;42.646;23.380;2022-07-23T11:24:04;94739.09;;;41.92;13.91
3968;BME280;9221;42.646;23.380;2022-07-23T11:34:38;94728.38;;;41.54;13.58
3968;BME280;9221;42.646;23.380;2022-07-23T11:37:07;94723.28;;;41.43;14.75
3968;BME280;9221;42.646;23.380;2022-07-23T11:39:33;94711.72;;;42.03;14.03
3968;BME280;9221;42.646;23.380;2022-07-23T11:42:00;94702.91;;;42.38;14.32
3968;BME280;9221;42.646;23.380;2022-07-23T11:44:31;94679.75;;;42.47;14.79
3968;BME280;9221;42.646;23.380;2022-07-23T11:47:01;94683.63;;;42.58;13.93
3968;BME280;9221;42.646;23.380;2022-07-23T11:49:27;94701.78;;;42.55;14.42
3968;BME280;9221;42.646;23.380;2022-07-23T11:52:22;94707.53;;;42.91;13.97
3968;BME280;9221;42.646;23.380;2022-07-23T11:57:13;94728.19;;;43.06;14.10
3968;BME280;9221;42.646;23.380;2022-07-23T11:59:39;94659.63;;;42.50;14.04
3968;BME280;9221;42.646;23.380;2022-07-23T12:02:06;94656.69;;;42.71;14.93
3968;BME280;9221;42.646;23.380;2022-07-23T12:09:49;94719.50;;;43.07;14.01
3968;BME280;9221;42.646;23.380;2022-07-23T12:12:15;94690.56;;;43.08;13.96
3968;BME280;9221;42.646;23.380;2022-07-23T12:14:57;94690.69;;;43.12;13.59
3968;BME280;9221;42.646;23.380;2022-07-23T12:17:31;94647.81;;;42.65;13.61
3968;BME280;9221;42.646;23.380;2022-07-23T12:19:58;94693.66;;;42.91;13.39
3968;BME280;9221;42.646;23.380;2022-07-23T12:22:26;94681.66;;;42.87;12.67
3968;BME280;9221;42.646;23.380;2022-07-23T12:24:58;94652.31;;;42.86;12.91
3968;BME280;9221;42.646;23.380;2022-07-23T12:27:25;94686.19;;;43.07;12.63
3968;BME280;9221;42.646;23.380;2022-07-23T12:29:52;94677.84;;;42.91;12.63
3968;BME280;9221;42.646;23.380;2022-07-23T12:35:02;94682.38;;;42.84;12.60
3968;BME280;9221;42.646;23.380;2022-07-23T12:37:33;94700.63;;;42.85;13.16
3968;BME280;9221;42.646;23.380;2022-07-23T12:40:18;94602.41;;;42.29;13.35
3968;BME280;9221;42.646;23.380;2022-07-23T12:42:46;94573.06;;;42.28;12.66
3968;BME280;9221;42.646;23.380;2022-07-23T12:45:12;94688.34;;;42.70;12.43
3968;BME280;9221;42.646;23.380;2022-07-23T12:47:59;94658.75;;;42.90;12.86
3968;BME280;9221;42.646;23.380;2022-07-23T12:50:37;94650.81;;;42.88;12.77
3968;BME280;9221;42.646;23.380;2022-07-23T12:55:28;94616.03;;;42.34;12.57
3968;BME280;9221;42.646;23.380;2022-07-23T12:58:03;94606.34;;;42.28;12.85
3968;BME280;9221;42.646;23.380;2022-07-23T13:00:30;94674.97;;;43.04;13.00
3968;BME280;9221;42.646;23.380;2022-07-23T13:02:55;94611.50;;;43.02;12.92
3968;BME280;9221;42.646;23.380;2022-07-23T13:05:21;94683.69;;;43.34;12.67
3968;BME280;9221;42.646;23.380;2022-07-23T13:07:46;94647.50;;;43.47;11.82
3968;BME280;9221;42.646;23.380;2022-07-23T13:10:12;94622.25;;;43.52;12.60
3968;BME280;9221;42.646;23.380;2022-07-23T13:12:37;94659.44;;;43.99;11.47
3968;BME280;9221;42.646;23.380;2022-07-23T13:15:03;94648.03;;;44.04;11.97
3968;BME280;9221;42.646;23.380;2022-07-23T13:17:28;94670.13;;;44.16;11.70
3968;BME280;9221;42.646;23.380;2022-07-23T13:19:53;94600.63;;;43.61;11.17
3968;BME280;9221;42.646;23.380;2022-07-23T13:22:19;94656.75;;;44.02;11.63
3968;BME280;9221;42.646;23.380;2022-07-23T13:24:44;94648.25;;;43.79;12.05
3968;BME280;9221;42.646;23.380;2022-07-23T13:27:10;94635.69;;;43.50;11.17
3968;BME280;9221;42.646;23.380;2022-07-23T13:29:35;94642.94;;;43.38;11.49
3968;BME280;9221;42.646;23.380;2022-07-23T13:32:01;94641.69;;;43.20;11.51
3968;BME280;9221;42.646;23.380;2022-07-23T13:34:26;94642.47;;;43.04;12.18
3968;BME280;9221;42.646;23.380;2022-07-23T13:36:51;94642.47;;;43.04;12.43
3968;BME280;9221;42.646;23.380;2022-07-23T13:39:17;94651.44;;;43.14;11.95
3968;BME280;9221;42.646;23.380;2022-07-23T13:41:42;94638.72;;;43.44;12.53
3968;BME280;9221;42.646;23.380;2022-07-23T13:44:08;94647.50;;;43.47;12.08
3968;BME280;9221;42.646;23.380;2022-07-23T13:46:34;94590.88;;;43.03;12.36
3968;BME280;9221;42.646;23.380;2022-07-23T13:48:59;94594.41;;;43.16;12.20
3968;BME280;9221;42.646;23.380;2022-07-23T13:51:25;94597.19;;;43.32;11.86
3968;BME280;9221;42.646;23.380;2022-07-23T13:53:50;94653.66;;;43.40;12.20
3968;BME280;9221;42.646;23.380;2022-07-23T13:56:16;94587.06;;;43.24;11.83
3968;BME280;9221;42.646;23.380;2022-07-23T13:58:41;94587.50;;;43.26;11.98
3968;BME280;9221;42.646;23.380;2022-07-23T14:01:07;94634.25;;;43.56;12.30
3968;BME280;9221;42.646;23.380;2022-07-23T14:03:32;94594.66;;;42.95;12.74
3968;BME280;9221;42.646;23.380;2022-07-23T14:05:58;94578.66;;;42.88;13.05